Impacts METAR Board
IDs:

KACT - Waco Rgnl, TX, US

Updated at: 0000 UTC 01 Nov 2020
Potential Impact None Slight Moderate High
Time 31/12Z 31/13Z 31/14Z 31/15Z 31/16Z 31/17Z 31/18Z 31/19Z 31/20Z 31/21Z 31/22Z 31/23Z 01/00Z
Temp38 37 46 53 59 63 66 70 71 73 73 71 64
Dewpt36 35 42 45 45 44 44 43 42 42 42 43 44
Altim30.22 30.22 30.24 30.25 30.25 30.23 30.20 30.16 30.11 30.09 30.10 30.09 30.09
VIS10 10 10 10 10 10 10 10 10 10 10 10 10
CIG-- -- -- -- -- -- -- -- -- -- -- -- --
CoverCLRCLRCLRCLRCLRCLRCLRCLRCLRCLRCLRCLRCLR
FltCatVFRVFRVFRVFRVFRVFRVFRVFRVFRVFRVFRVFRVFR
WX--------------------------
WDir00100130180160160160170170160150140
WSpd0 0 3 4 5 8 9 9 11 8 7 8 6
WGst-- -- -- -- -- -- -- -- -- -- -- -- --
Raw hourly METARs
KACT 311151Z AUTO 00000KT 10SM CLR 03/02 A3022 RMK AO2 SLP234 T00330022 10083 20033 53006
KACT 311251Z AUTO 00000KT 10SM CLR 03/02 A3022 RMK AO2 SLP233 T00280017
KACT 311351Z 10003KT 10SM CLR 08/06 A3024 RMK AO2 SLP238 T00780056
KACT 311451Z 13004KT 10SM CLR 12/07 A3025 RMK AO2 SLP243 T01170072 53009
KACT 311551Z 18005KT 10SM CLR 15/07 A3025 RMK AO2 SLP240 T01500072
KACT 311651Z 16008KT 10SM CLR 17/07 A3023 RMK AO2 SLP234 T01720067
KACT 311751Z 16009KT 10SM CLR 19/07 A3020 RMK AO2 SLP222 T01890067 10189 20028 58018
KACT 311851Z 16009KT 10SM CLR 21/06 A3016 RMK AO2 SLP210 T02110061
KACT 311951Z 17011KT 10SM CLR 22/06 A3011 RMK AO2 SLP195 T02170056
KACT 312051Z 17008KT 10SM CLR 23/06 A3009 RMK AO2 SLP188 T02280056 56034
KACT 312151Z 16007KT 10SM CLR 23/06 A3010 RMK AO2 SLP188 T02280056
KACT 312251Z AUTO 15008KT 10SM CLR 22/06 A3009 RMK AO2 SLP186 T02170061
KACT 312351Z 14006KT 10SM CLR 18/07 A3009 RMK AO2 SLP188 T01780067 10228 20172 55001